Terminal Aerodrome Forecast
Issued by NWS

Home | Current Version | Previous Version | Graphics & Text | Print | Product List | Glossary On
Versions: 1 2 3 4 5 6 7 8 9 10 11 12 13 14 15 16 17 18 19 20
000
FTUS43 KGRB 311100
TAFCWA
TAF
KCWA 311134Z 3112/0112 32004KT 2SM BR SCT040 BKN090
      TEMPO 3112/3114 1/2SM FG VV002
     FM311500 28011G19KT P6SM BKN040
     FM312200 32008KT P6SM SCT040
     FM010300 03005KT P6SM SCT150
     FM011000 10006KT P6SM BKN100=

USA.gov is the U.S. government's official web portal to all federal, state and local government web resources and services.